Time;durP1;ratioP1;P1;durP2;ratioP2;P2;SDS_P1;SDS_P2;PMS_P1;PMS_P2;Temp;Humidity;BMP_temperature;BMP_pressure;BME280_temperature;BME280_humidity;BME280_pressure;Samples;Min_cycle;Max_cycle;Signal;HPM_P1;HPM_P2
2022/02/24 00:00:00;;;;;;;11.70;3.88;;;0.50;99.90;;;;;;5008088;28;20027;-79
2022/02/24 00:02:26;;;;;;;;;;;0.40;99.90;;;;;;4994433;28;20037;-80
2022/02/24 00:04:52;;;;;;;18.20;5.30;;;0.40;99.90;;;;;;4992661;28;19918;-79
2022/02/24 00:07:17;;;;;;;;;;;0.40;99.90;;;;;;5009271;28;20535;-79
2022/02/24 00:09:44;;;;;;;21.27;5.88;;;0.40;99.90;;;;;;4994183;28;19906;-80
2022/02/24 00:12:10;;;;;;;18.60;5.40;;;0.30;99.90;;;;;;5013657;28;20031;-79
2022/02/24 00:14:35;;;;;;;;;;;0.30;99.90;;;;;;5013386;28;20087;-81
2022/02/24 00:17:01;;;;;;;20.45;4.70;;;0.30;99.90;;;;;;4998261;28;19910;-81
2022/02/24 00:19:27;;;;;;;13.98;4.10;;;0.30;99.90;;;;;;4998220;28;20023;-79
2022/02/24 00:21:53;;;;;;;;;;;0.30;99.90;;;;;;4997864;28;20042;-79
2022/02/24 00:24:19;;;;;;;16.73;4.85;;;0.30;99.90;;;;;;4997226;28;19910;-80
2022/02/24 00:26:44;;;;;;;;;;;0.30;99.90;;;;;;4998511;28;20042;-79
2022/02/24 00:29:10;;;;;;;22.42;10.27;;;0.30;99.90;;;;;;5003015;28;19910;-80
2022/02/24 00:31:35;;;;;;;;;;;0.30;99.90;;;;;;5004126;28;20034;-79
2022/02/24 00:34:02;;;;;;;21.75;8.43;;;0.30;99.90;;;;;;5003536;28;19933;-80
2022/02/24 00:36:27;;;;;;;18.88;5.07;;;0.20;99.90;;;;;;5020222;28;20015;-80
2022/02/24 00:38:53;;;;;;;;;;;0.20;99.90;;;;;;5005080;28;20015;-80
2022/02/24 00:41:19;;;;;;;13.80;3.20;;;0.10;99.90;;;;;;5004675;28;19902;-80
2022/02/24 00:43:45;;;;;;;15.82;4.18;;;0.00;99.90;;;;;;5060466;23;20066;-78
2022/02/24 00:46:10;;;;;;;;;;;-0.10;99.90;;;;;;5006260;28;20045;-80
2022/02/24 00:48:36;;;;;;;9.75;4.32;;;-0.10;99.90;;;;;;5007156;28;19932;-79
2022/02/24 00:51:02;;;;;;;;;;;-0.20;99.90;;;;;;5007833;28;20034;-79
2022/02/24 00:53:28;;;;;;;11.43;4.28;;;-0.20;99.90;;;;;;5005583;28;19905;-79
2022/02/24 00:55:53;;;;;;;;;;;-0.30;99.90;;;;;;5007980;28;20090;-81
2022/02/24 00:58:21;;;;;;;10.75;3.30;;;-0.40;99.90;;;;;;5007020;28;19906;-79
2022/02/24 01:00:47;;;;;;;9.38;3.38;;;-0.30;99.90;;;;;;5006944;28;20034;-79
2022/02/24 01:03:13;;;;;;;;;;;-0.40;99.90;;;;;;5006767;28;20038;-79
2022/02/24 01:05:38;;;;;;;10.20;2.55;;;-0.30;99.90;;;;;;5008692;28;20427;-80
2022/02/24 01:08:04;;;;;;;;;;;-0.30;99.90;;;;;;5007730;28;20022;-80
2022/02/24 01:10:30;;;;;;;12.57;3.80;;;-0.30;99.90;;;;;;5006486;28;19910;-80
2022/02/24 01:12:55;;;;;;;;;;;-0.30;99.90;;;;;;5006193;28;20061;-79
2022/02/24 01:15:21;;;;;;;15.93;3.72;;;-0.30;99.90;;;;;;5000375;28;19912;-78
2022/02/24 01:17:46;;;;;;;;;;;-0.20;99.90;;;;;;5005336;28;20036;-79
2022/02/24 01:20:12;;;;;;;7.47;2.25;;;0.00;99.90;;;;;;5010387;28;19906;-79
2022/02/24 01:22:38;;;;;;;;;;;0.20;99.90;;;;;;5006552;28;20505;-79
2022/02/24 01:25:04;;;;;;;9.80;2.05;;;0.30;99.90;;;;;;5004265;28;19980;-80
2022/02/24 01:27:30;;;;;;;15.38;2.17;;;0.30;99.90;;;;;;4997892;28;20027;-79
2022/02/24 01:29:57;;;;;;;;;;;0.50;99.90;;;;;;4999356;28;20037;-78
2022/02/24 01:32:24;;;;;;;8.38;1.63;;;0.60;99.90;;;;;;5005904;28;19913;-79
2022/02/24 01:34:50;;;;;;;6.97;1.75;;;0.60;99.90;;;;;;5010539;28;20487;-79
2022/02/24 01:37:16;;;;;;;7.28;2.10;;;0.60;99.90;;;;;;5011728;28;20018;-81
2022/02/24 01:39:42;;;;;;;;;;;0.50;99.90;;;;;;5009344;28;20050;-79
2022/02/24 01:42:07;;;;;;;7.82;1.45;;;0.50;99.90;;;;;;5005759;28;19910;-80
2022/02/24 01:44:45;;;;;;;9.75;2.25;;;0.50;99.90;;;;;;5002006;28;20469;-79
2022/02/24 01:47:11;;;;;;;9.82;2.40;;;0.40;99.90;;;;;;4997504;28;20086;-78
2022/02/24 01:49:38;;;;;;;7.78;2.58;;;0.40;99.90;;;;;;4998145;28;20050;-78
2022/02/24 01:52:06;;;;;;;8.43;3.00;;;0.40;99.90;;;;;;4996947;28;20026;-79
2022/02/24 01:54:33;;;;;;;9.75;3.35;;;0.30;99.90;;;;;;4996648;28;20061;-78
2022/02/24 01:56:59;;;;;;;13.25;3.20;;;0.30;99.90;;;;;;4996970;28;20031;-78
2022/02/24 01:59:25;;;;;;;10.73;2.40;;;0.20;99.90;;;;;;4996725;28;20034;-78
2022/02/24 02:01:51;;;;;;;;;;;0.20;99.90;;;;;;4997624;28;20027;-78
2022/02/24 02:04:16;;;;;;;20.90;7.90;;;0.30;99.90;;;;;;4996835;28;19914;-79
2022/02/24 02:06:42;;;;;;;;;;;0.30;99.90;;;;;;5000959;28;20038;-79
2022/02/24 02:09:09;;;;;;;11.93;4.30;;;0.40;99.90;;;;;;5001995;28;19909;-78
2022/02/24 02:11:35;;;;;;;7.55;2.05;;;0.40;99.90;;;;;;5004347;28;20031;-80
2022/02/24 02:14:01;;;;;;;;;;;0.50;99.90;;;;;;5006222;28;20367;-80
2022/02/24 02:16:26;;;;;;;16.90;4.50;;;0.40;99.90;;;;;;5008445;28;19906;-79
2022/02/24 02:18:52;;;;;;;21.23;9.07;;;0.40;99.90;;;;;;4997489;28;20049;-78
2022/02/24 02:21:17;;;;;;;;;;;0.40;99.90;;;;;;4996953;28;20415;-78
2022/02/24 02:23:43;;;;;;;16.60;3.70;;;0.50;99.90;;;;;;4996508;28;20471;-77
2022/02/24 02:26:09;;;;;;;;;;;0.50;99.90;;;;;;4996400;28;20034;-77
2022/02/24 02:28:34;;;;;;;6.32;1.33;;;0.40;99.90;;;;;;4995316;28;19960;-78
2022/02/24 02:31:00;;;;;;;6.88;1.52;;;0.40;99.90;;;;;;4995417;28;20073;-77
2022/02/24 02:33:26;;;;;;;;;;;0.30;99.90;;;;;;4994665;28;20026;-77
2022/02/24 02:35:51;;;;;;;8.48;1.55;;;0.20;99.90;;;;;;4994273;28;19953;-77
2022/02/24 02:38:17;;;;;;;;;;;0.20;99.90;;;;;;5001859;28;20062;-79
2022/02/24 02:40:43;;;;;;;4.90;0.85;;;0.10;99.90;;;;;;5010976;28;19977;-79
2022/02/24 02:43:09;;;;;;;;;;;0.10;99.90;;;;;;5002612;28;20133;-78
2022/02/24 02:45:36;;;;;;;11.15;1.60;;;0.00;99.90;;;;;;4993932;28;19917;-78
2022/02/24 02:48:02;;;;;;;8.32;1.13;;;0.10;99.90;;;;;;4993577;28;20034;-79
2022/02/24 02:50:32;;;;;;;5.95;1.02;;;0.00;99.90;;;;;;4993865;28;20496;-78
2022/02/24 02:53:02;;;;;;;4.95;1.05;;;0.20;99.90;;;;;;4998472;28;20042;-78
2022/02/24 02:55:28;;;;;;;8.40;0.75;;;0.10;99.90;;;;;;4998467;28;20727;-81
2022/02/24 02:57:53;;;;;;;;;;;0.10;99.90;;;;;;4999177;28;20030;-79
2022/02/24 03:00:19;;;;;;;4.57;1.27;;;0.10;99.90;;;;;;4997045;28;19906;-79
2022/02/24 03:02:45;;;;;;;;;;;0.10;99.90;;;;;;4994473;28;20422;-78
2022/02/24 03:05:10;;;;;;;10.30;1.92;;;0.00;99.90;;;;;;4995300;28;20020;-80
2022/02/24 03:07:36;;;;;;;;;;;0.00;99.90;;;;;;4993747;28;20117;-79
2022/02/24 03:10:04;;;;;;;12.20;2.35;;;-0.10;99.90;;;;;;4993485;28;20371;-78
2022/02/24 03:12:35;;;;;;;9.68;2.05;;;-0.10;99.90;;;;;;4996709;28;20086;-79
2022/02/24 03:15:09;;;;;;;7.47;2.00;;;-0.10;99.90;;;;;;4996582;28;20030;-80
2022/02/24 03:17:37;;;;;;;5.53;1.75;;;0.00;99.90;;;;;;4995796;28;20077;-80
2022/02/24 03:20:04;;;;;;;8.82;2.28;;;0.00;99.90;;;;;;4994973;28;20030;-80
2022/02/24 03:22:29;;;;;;;10.40;2.97;;;0.00;99.90;;;;;;4995202;28;20054;-79
2022/02/24 03:24:55;;;;;;;;;;;0.00;99.90;;;;;;4997045;28;20065;-79
2022/02/24 03:27:20;;;;;;;7.93;1.75;;;0.00;99.90;;;;;;4996415;28;20286;-79
2022/02/24 03:29:46;;;;;;;;;;;0.10;99.90;;;;;;4995000;28;20498;-80
2022/02/24 03:32:12;;;;;;;7.38;1.10;;;0.20;99.90;;;;;;4995107;28;20383;-79
2022/02/24 03:34:40;;;;;;;;;;;0.20;99.90;;;;;;4997058;28;20053;-79
2022/02/24 03:37:06;;;;;;;7.30;1.88;;;0.20;99.90;;;;;;4994436;28;19905;-79
2022/02/24 03:39:32;;;;;;;;;;;0.30;99.90;;;;;;5011828;28;20056;-79
2022/02/24 03:41:58;;;;;;;6.20;1.27;;;0.30;99.90;;;;;;4996191;28;19959;-79
2022/02/24 03:44:23;;;;;;;;;;;0.30;99.90;;;;;;4997164;28;20285;-79
2022/02/24 03:46:49;;;;;;;7.22;0.90;;;0.40;99.90;;;;;;4997193;28;19921;-81
2022/02/24 03:49:15;;;;;;;;;;;0.40;99.90;;;;;;4997754;28;20037;-79
2022/02/24 03:51:41;;;;;;;7.55;1.02;;;0.40;99.90;;;;;;4997222;28;19905;-79
2022/02/24 03:54:07;;;;;;;6.07;0.95;;;0.60;99.90;;;;;;4994446;28;20446;-78
2022/02/24 03:56:32;;;;;;;;;;;0.60;99.90;;;;;;4990971;28;20399;-78
2022/02/24 03:58:58;;;;;;;7.10;0.77;;;0.70;99.90;;;;;;4991998;28;19909;-79
2022/02/24 04:01:23;;;;;;;;;;;0.70;99.90;;;;;;4991080;28;20026;-78
2022/02/24 04:03:49;;;;;;;9.15;2.33;;;0.70;99.90;;;;;;4991791;28;19910;-77
2022/02/24 04:06:15;;;;;;;;;;;0.60;99.90;;;;;;4994312;28;20129;-79
2022/02/24 04:08:40;;;;;;;11.25;3.28;;;0.50;99.90;;;;;;4993551;28;19993;-79
2022/02/24 04:11:06;;;;;;;10.68;3.72;;;0.40;99.90;;;;;;4991998;28;20025;-78
2022/02/24 04:13:32;;;;;;;13.30;4.35;;;0.20;99.90;;;;;;4991604;28;20046;-78
2022/02/24 04:15:58;;;;;;;;;;;0.20;99.90;;;;;;4992703;28;20118;-78
2022/02/24 04:18:23;;;;;;;13.65;4.15;;;0.00;99.90;;;;;;4993169;28;19906;-79
2022/02/24 04:20:49;;;;;;;;;;;0.00;99.90;;;;;;4993363;28;20031;-79
2022/02/24 04:23:15;;;;;;;13.27;3.42;;;-0.10;99.90;;;;;;4993632;28;19960;-78
2022/02/24 04:25:41;;;;;;;;;;;-0.20;99.90;;;;;;4994175;28;20077;-79
2022/02/24 04:28:07;;;;;;;18.40;4.65;;;-0.30;99.90;;;;;;4993631;28;19920;-79
2022/02/24 04:30:32;;;;;;;;;;;-0.40;99.90;;;;;;5000054;28;20483;-81
2022/02/24 04:32:58;;;;;;;30.55;9.05;;;-0.50;99.90;;;;;;5006423;28;19941;-80
2022/02/24 04:35:24;;;;;;;;;;;-0.60;99.90;;;;;;4997531;28;20026;-78
2022/02/24 04:37:50;;;;;;;33.75;7.95;;;-0.70;99.90;;;;;;4997099;28;19906;-79
2022/02/24 04:40:15;;;;;;;;;;;-0.80;99.90;;;;;;4990739;28;20403;-79
2022/02/24 04:42:42;;;;;;;21.75;7.10;;;-0.90;99.90;;;;;;4993659;28;19914;-78
2022/02/24 04:45:08;;;;;;;24.35;7.60;;;-1.00;99.90;;;;;;4992911;28;20038;-79
2022/02/24 04:47:34;;;;;;;;;;;-0.90;99.90;;;;;;4990723;28;20084;-77
2022/02/24 04:49:59;;;;;;;19.40;6.82;;;-1.00;99.90;;;;;;4991609;28;19909;-78
2022/02/24 04:52:25;;;;;;;;;;;-0.90;99.90;;;;;;4993630;28;20096;-79
2022/02/24 04:54:54;;;;;;;17.70;4.63;;;-0.90;99.90;;;;;;4991632;28;19906;-78
2022/02/24 04:57:20;;;;;;;11.80;3.63;;;-0.90;99.90;;;;;;4990916;28;20026;-78
2022/02/24 04:59:45;;;;;;;;;;;-0.80;99.90;;;;;;4975796;28;20078;-78
2022/02/24 05:02:11;;;;;;;7.18;2.38;;;-0.70;99.90;;;;;;4980409;28;19906;-79
2022/02/24 05:04:36;;;;;;;;;;;-0.50;99.90;;;;;;4977256;28;20073;-79
2022/02/24 05:07:02;;;;;;;6.20;2.00;;;-0.40;99.90;;;;;;4978605;28;19910;-80
2022/02/24 05:09:28;;;;;;;;;;;-0.30;99.90;;;;;;4993477;28;20523;-79
2022/02/24 05:11:53;;;;;;;23.13;8.52;;;-0.30;99.90;;;;;;4973900;28;20519;-79
2022/02/24 05:14:19;;;;;;;;;;;-0.30;99.90;;;;;;4990881;28;20034;-78
2022/02/24 05:16:45;;;;;;;19.75;7.85;;;-0.30;99.90;;;;;;4983340;28;20004;-78
2022/02/24 05:19:11;;;;;;;21.95;7.47;;;-0.40;99.90;;;;;;4986085;28;20043;-79
2022/02/24 05:21:37;;;;;;;;;;;-0.40;99.90;;;;;;4977716;28;20034;-80
2022/02/24 05:24:03;;;;;;;16.13;5.80;;;-0.40;99.90;;;;;;4980134;28;20024;-79
2022/02/24 05:26:29;;;;;;;16.55;4.78;;;-0.50;99.90;;;;;;4990751;28;20042;-79
2022/02/24 05:28:54;;;;;;;;;;;-0.50;99.90;;;;;;4974865;28;20027;-79
2022/02/24 05:31:20;;;;;;;16.38;6.15;;;-0.50;99.90;;;;;;4974542;28;19910;-78
2022/02/24 05:33:45;;;;;;;;;;;-0.50;99.90;;;;;;4979641;28;20061;-80
2022/02/24 05:36:11;;;;;;;31.42;12.85;;;-0.40;99.90;;;;;;4981127;28;19910;-81
2022/02/24 05:38:37;;;;;;;;;;;-0.40;99.90;;;;;;4999830;28;20042;-80
2022/02/24 05:41:03;;;;;;;37.38;16.33;;;-0.40;99.90;;;;;;4981751;28;19906;-80
2022/02/24 05:43:30;;;;;;;48.03;16.05;;;-0.40;99.90;;;;;;4977255;28;20053;-80
2022/02/24 05:45:56;;;;;;;37.92;15.93;;;-0.40;99.90;;;;;;4977070;28;20065;-79
2022/02/24 05:48:23;;;;;;;29.98;13.40;;;-0.60;99.90;;;;;;4975322;28;20019;-79
2022/02/24 05:50:50;;;;;;;105.28;69.50;;;-0.60;99.90;;;;;;4972559;28;20037;-79
2022/02/24 05:53:15;;;;;;;67.22;40.60;;;-0.60;99.90;;;;;;4972332;28;20027;-80
2022/02/24 05:55:41;;;;;;;;;;;-0.60;99.90;;;;;;4971262;28;20031;-78
2022/02/24 05:58:06;;;;;;;44.63;20.77;;;-0.50;99.90;;;;;;4971749;28;19917;-78
2022/02/24 06:00:32;;;;;;;;;;;-0.50;99.90;;;;;;4965494;28;20503;-78
2022/02/24 06:02:58;;;;;;;24.90;11.95;;;-0.40;99.90;;;;;;4971273;28;19917;-78
2022/02/24 06:05:23;;;;;;;;;;;-0.30;99.90;;;;;;4972861;28;20725;-78
2022/02/24 06:07:49;;;;;;;30.15;12.20;;;-0.30;99.90;;;;;;4975077;28;19909;-79
2022/02/24 06:10:15;;;;;;;;;;;-0.30;99.90;;;;;;4976039;28;20109;-80
2022/02/24 06:12:41;;;;;;;28.52;10.73;;;-0.20;99.90;;;;;;4975344;28;20028;-79
2022/02/24 06:15:07;;;;;;;;;;;-0.10;99.90;;;;;;4974827;28;20027;-79
2022/02/24 06:17:33;;;;;;;24.45;11.43;;;-0.10;99.90;;;;;;4975839;28;19910;-79
2022/02/24 06:19:59;;;;;;;;;;;0.00;99.90;;;;;;4991803;28;20038;-79
2022/02/24 06:22:24;;;;;;;20.77;8.60;;;0.10;99.90;;;;;;4992582;28;19921;-80
2022/02/24 06:24:53;;;;;;;;;;;0.10;99.90;;;;;;4976337;28;20411;-79
2022/02/24 06:27:19;;;;;;;16.63;6.57;;;0.20;99.90;;;;;;4976800;28;19905;-79
2022/02/24 06:29:46;;;;;;;17.92;6.13;;;0.30;99.90;;;;;;4976298;28;20027;-80
2022/02/24 06:32:15;;;;;;;19.60;6.35;;;0.40;99.90;;;;;;4977034;28;20838;-79
2022/02/24 06:34:41;;;;;;;20.27;5.65;;;0.70;99.90;;;;;;4994178;28;20031;-79
2022/02/24 06:37:07;;;;;;;13.98;4.35;;;1.30;99.90;;;;;;4976695;28;20027;-79
2022/02/24 06:39:33;;;;;;;;;;;2.00;99.90;;;;;;4981378;28;20027;-80
2022/02/24 06:41:59;;;;;;;31.35;12.80;;;2.90;99.90;;;;;;4995505;28;19906;-80
2022/02/24 06:44:24;;;;;;;;;;;3.80;99.90;;;;;;4982071;28;20138;-80
2022/02/24 06:46:50;;;;;;;15.10;7.00;;;4.60;94.60;;;;;;4982859;28;19973;-80
2022/02/24 06:49:15;;;;;;;;;;;5.30;91.40;;;;;;4987186;28;20058;-84
2022/02/24 06:51:41;;;;;;;21.13;6.45;;;5.90;86.50;;;;;;4968141;28;19933;-85
2022/02/24 06:54:07;;;;;;;24.20;9.07;;;6.60;79.70;;;;;;4983617;28;20027;-80
2022/02/24 06:56:33;;;;;;;;;;;7.10;75.20;;;;;;4969220;28;20082;-85
2022/02/24 06:58:58;;;;;;;29.30;14.88;;;7.70;68.10;;;;;;4968678;28;19997;-82
2022/02/24 07:01:24;;;;;;;20.50;12.10;;;8.20;67.20;;;;;;4983947;28;20632;-82
2022/02/24 07:03:49;;;;;;;26.35;12.75;;;8.80;65.00;;;;;;4968115;28;20059;-82
2022/02/24 07:06:15;;;;;;;;;;;9.20;62.10;;;;;;4983694;28;20093;-81
2022/02/24 07:08:41;;;;;;;18.40;10.55;;;9.70;60.10;;;;;;4968429;28;19914;-80
2022/02/24 07:11:06;;;;;;;;;;;10.20;59.50;;;;;;4967112;28;20030;-80
2022/02/24 07:13:32;;;;;;;17.10;9.73;;;10.60;57.90;;;;;;4967716;28;19912;-80
2022/02/24 07:15:58;;;;;;;;;;;11.00;56.50;;;;;;4966548;28;20035;-79
2022/02/24 07:18:23;;;;;;;29.30;14.98;;;11.30;54.00;;;;;;4967582;28;19910;-79
2022/02/24 07:20:49;;;;;;;;;;;11.60;53.10;;;;;;4968445;28;20066;-80
2022/02/24 07:23:15;;;;;;;11.82;3.38;;;11.90;51.30;;;;;;4967520;28;19910;-80
2022/02/24 07:25:40;;;;;;;;;;;12.80;46.50;;;;;;4968590;28;20046;-79
2022/02/24 07:28:07;;;;;;;9.30;2.58;;;13.30;42.10;;;;;;4966902;28;20000;-80
2022/02/24 07:30:37;;;;;;;14.70;4.45;;;13.40;41.60;;;;;;4966833;28;20023;-82
2022/02/24 07:33:03;;;;;;;5.22;2.20;;;13.70;40.60;;;;;;4968268;28;20043;-82
2022/02/24 07:35:29;;;;;;;9.10;2.95;;;13.70;38.50;;;;;;4968410;28;20081;-82
2022/02/24 07:37:55;;;;;;;;;;;13.60;39.10;;;;;;4983140;28;20035;-81
2022/02/24 07:40:20;;;;;;;6.85;1.58;;;13.90;39.40;;;;;;4983373;28;20373;-81
2022/02/24 07:42:46;;;;;;;;;;;14.10;39.00;;;;;;4968440;28;20376;-81
2022/02/24 07:45:12;;;;;;;7.60;1.80;;;14.40;38.00;;;;;;4967132;28;20230;-82
2022/02/24 07:47:38;;;;;;;9.48;2.17;;;14.70;37.80;;;;;;4968027;28;20035;-81
2022/02/24 07:50:05;;;;;;;;;;;14.90;36.70;;;;;;4967540;28;20038;-82
2022/02/24 07:52:30;;;;;;;7.03;2.25;;;15.00;36.60;;;;;;4968359;28;19974;-79
2022/02/24 07:54:56;;;;;;;;;;;14.90;35.70;;;;;;4968241;28;20043;-81
2022/02/24 07:57:22;;;;;;;6.18;2.10;;;15.10;36.00;;;;;;4967169;28;19949;-81
2022/02/24 07:59:48;;;;;;;8.15;2.25;;;15.00;36.60;;;;;;4965407;28;20056;-82
2022/02/24 08:02:14;;;;;;;;;;;14.90;36.50;;;;;;4968193;28;20399;-81
2022/02/24 08:04:39;;;;;;;9.02;2.60;;;14.90;35.00;;;;;;4967500;28;19979;-81
2022/02/24 08:07:05;;;;;;;6.25;1.77;;;14.60;34.30;;;;;;4967956;28;20042;-79
2022/02/24 08:09:31;;;;;;;;;;;14.60;35.10;;;;;;4966477;28;20023;-81
2022/02/24 08:14:41;;;;;;;17.13;4.65;;;14.90;35.30;;;;;;4967583;28;20792;-81
2022/02/24 08:17:06;;;;;;;;;;;15.00;35.30;;;;;;4966383;28;20027;-80
2022/02/24 08:19:33;;;;;;;8.70;3.30;;;15.20;34.50;;;;;;4981575;28;19918;-79
2022/02/24 08:21:59;;;;;;;6.80;2.72;;;15.10;33.80;;;;;;4965977;28;20527;-79
2022/02/24 08:24:25;;;;;;;8.73;3.25;;;15.20;32.60;;;;;;4967743;28;20088;-80
2022/02/24 08:26:52;;;;;;;5.95;2.47;;;15.20;33.20;;;;;;4965650;28;20499;-80
2022/02/24 08:29:18;;;;;;;7.85;1.70;;;15.30;33.50;;;;;;4968539;28;20027;-79
2022/02/24 08:31:43;;;;;;;9.25;1.98;;;15.40;31.60;;;;;;4965692;28;20054;-79
2022/02/24 08:34:10;;;;;;;5.53;2.00;;;15.60;32.30;;;;;;4965962;28;20027;-79
2022/02/24 08:36:35;;;;;;;5.88;1.33;;;15.60;32.00;;;;;;4967759;28;20023;-79
2022/02/24 08:39:01;;;;;;;7.75;1.80;;;15.90;32.70;;;;;;4967241;28;20019;-80
2022/02/24 08:41:27;;;;;;;5.53;1.52;;;16.50;32.00;;;;;;4980590;28;20476;-79
2022/02/24 08:43:53;;;;;;;9.15;1.75;;;16.50;29.70;;;;;;4966233;28;20078;-79
2022/02/24 08:46:18;;;;;;;9.18;1.98;;;16.70;30.90;;;;;;4981083;28;20062;-80
2022/02/24 08:48:44;;;;;;;7.57;2.00;;;16.70;30.30;;;;;;4967100;28;20086;-79
2022/02/24 08:51:10;;;;;;;7.75;1.75;;;16.90;29.60;;;;;;4968945;28;20779;-80
2022/02/24 08:53:35;;;;;;;5.00;2.10;;;17.00;29.70;;;;;;4971326;28;20037;-79
2022/02/24 08:56:01;;;;;;;7.25;1.83;;;17.10;28.70;;;;;;4971336;28;20030;-80
2022/02/24 08:58:27;;;;;;;8.10;2.10;;;17.00;29.10;;;;;;4985788;28;20500;-79
2022/02/24 09:00:52;;;;;;;6.68;2.03;;;16.70;29.10;;;;;;4969753;28;20031;-79
2022/02/24 09:03:18;;;;;;;6.90;1.70;;;16.80;29.30;;;;;;4970907;28;20023;-79
2022/02/24 09:05:45;;;;;;;6.20;1.77;;;17.20;28.70;;;;;;4970150;28;20535;-79
2022/02/24 09:08:12;;;;;;;4.32;1.70;;;17.30;28.70;;;;;;4971326;28;20033;-79
2022/02/24 09:10:38;;;;;;;9.32;2.08;;;17.40;28.70;;;;;;4971197;28;20128;-80
2022/02/24 09:13:05;;;;;;;5.45;1.77;;;17.40;28.00;;;;;;4969838;28;20053;-80
2022/02/24 09:15:32;;;;;;;10.20;2.15;;;16.90;28.30;;;;;;4969617;28;20077;-80
2022/02/24 09:18:01;;;;;;;8.73;1.73;;;16.70;29.80;;;;;;4971092;28;20039;-81
2022/02/24 09:20:27;;;;;;;7.82;1.60;;;17.00;28.40;;;;;;4970372;28;20101;-79
2022/02/24 09:22:53;;;;;;;6.50;1.48;;;16.70;28.40;;;;;;4985974;28;20519;-79
2022/02/24 09:25:18;;;;;;;5.10;1.52;;;16.60;29.20;;;;;;4971053;28;20082;-79
2022/02/24 09:27:44;;;;;;;7.57;1.48;;;16.50;30.00;;;;;;4969591;28;20031;-80
2022/02/24 09:30:10;;;;;;;6.18;1.33;;;16.90;29.80;;;;;;4969403;28;20031;-79
2022/02/24 09:32:37;;;;;;;8.25;1.75;;;17.20;28.80;;;;;;4970702;28;20407;-79
2022/02/24 09:35:05;;;;;;;9.95;2.28;;;17.10;29.00;;;;;;4970688;28;20034;-79
2022/02/24 09:37:36;;;;;;;7.32;2.03;;;17.30;29.30;;;;;;4970507;28;20027;-80
2022/02/24 09:40:04;;;;;;;5.65;1.75;;;17.70;28.50;;;;;;4970691;28;20033;-80
2022/02/24 09:42:30;;;;;;;12.55;2.78;;;17.70;28.10;;;;;;4970292;28;20069;-80
2022/02/24 09:44:55;;;;;;;7.38;2.40;;;17.50;27.80;;;;;;4970440;28;20520;-80
2022/02/24 09:47:23;;;;;;;9.15;1.67;;;17.40;28.20;;;;;;4970147;28;20081;-80
2022/02/24 09:49:51;;;;;;;7.15;2.65;;;17.20;28.80;;;;;;4970274;28;20022;-79
2022/02/24 09:52:17;;;;;;;6.90;2.08;;;17.20;28.90;;;;;;4970272;28;20027;-80
2022/02/24 09:54:43;;;;;;;8.18;2.45;;;17.30;29.20;;;;;;4969866;28;20031;-80
2022/02/24 09:57:08;;;;;;;5.68;1.77;;;17.40;27.80;;;;;;4969366;28;20034;-80
2022/02/24 09:59:34;;;;;;;13.20;3.08;;;17.10;28.60;;;;;;4984645;28;20126;-80
2022/02/24 10:02:00;;;;;;;6.18;1.58;;;17.20;28.20;;;;;;4969745;28;20531;-81
2022/02/24 10:04:27;;;;;;;8.10;1.50;;;16.50;28.50;;;;;;4985107;28;20479;-79
2022/02/24 10:06:53;;;;;;;15.05;3.08;;;16.50;29.20;;;;;;4967956;28;20504;-80
2022/02/24 10:09:20;;;;;;;6.80;1.85;;;16.60;29.40;;;;;;4984877;28;20035;-80
2022/02/24 10:11:47;;;;;;;5.78;1.55;;;16.90;28.70;;;;;;4968465;28;20127;-80
2022/02/24 10:14:21;;;;;;;5.13;1.58;;;17.10;29.00;;;;;;4969335;28;20034;-80
2022/02/24 10:17:03;;;;;;;9.57;2.00;;;17.30;29.00;;;;;;4969946;28;20031;-80
2022/02/24 10:19:40;;;;;;;5.22;1.58;;;17.40;28.40;;;;;;4969379;28;20078;-80
2022/02/24 10:22:12;;;;;;;5.55;2.30;;;17.50;28.60;;;;;;4969710;28;20660;-78
2022/02/24 10:24:40;;;;;;;7.20;2.33;;;16.90;28.30;;;;;;4968885;28;20042;-79
2022/02/24 10:27:27;;;;;;;7.45;2.28;;;16.30;29.10;;;;;;4968137;28;20659;-79
2022/02/24 10:30:16;;;;;;;7.43;1.63;;;15.40;30.20;;;;;;4968482;28;20438;-81
2022/02/24 10:32:52;;;;;;;6.43;1.83;;;14.70;30.90;;;;;;4969132;28;20033;-81
2022/02/24 10:35:40;;;;;;;8.38;2.10;;;13.90;32.30;;;;;;4967697;28;20035;-81
2022/02/24 10:38:07;;;;;;;8.18;2.05;;;13.30;32.70;;;;;;4968782;28;20023;-81
2022/02/24 10:40:53;;;;;;;7.40;2.15;;;12.90;33.80;;;;;;4968754;28;20035;-82
2022/02/24 10:43:25;;;;;;;7.77;1.73;;;12.60;34.40;;;;;;4967595;28;20567;-84
2022/02/24 10:46:09;;;;;;;7.47;1.75;;;12.40;34.20;;;;;;4968490;28;20302;-82
2022/02/24 10:48:53;;;;;;;8.95;3.15;;;12.20;34.80;;;;;;4967028;28;20019;-80
2022/02/24 10:51:28;;;;;;;10.35;2.95;;;12.10;36.00;;;;;;4970008;28;20084;-80
2022/02/24 10:54:13;;;;;;;7.68;2.92;;;11.90;36.80;;;;;;4968159;28;20665;-81
2022/02/24 10:56:43;;;;;;;7.38;2.10;;;11.90;35.90;;;;;;4967410;28;20447;-83
2022/02/24 10:59:12;;;;;;;9.73;2.30;;;11.80;35.60;;;;;;4968336;28;20030;-79
2022/02/24 11:01:40;;;;;;;8.25;2.15;;;11.60;36.20;;;;;;4984432;28;20038;-83
2022/02/24 11:04:06;;;;;;;11.93;3.22;;;11.50;36.60;;;;;;4968815;28;20027;-81
2022/02/24 11:06:36;;;;;;;12.68;4.20;;;11.40;37.00;;;;;;4969765;28;20039;-84
2022/02/24 11:09:04;;;;;;;6.95;2.17;;;11.30;37.60;;;;;;4968710;28;20023;-88
2022/02/24 11:11:32;;;;;;;9.82;2.92;;;11.30;38.30;;;;;;4968947;28;20311;-85
2022/02/24 11:13:59;;;;;;;9.75;3.25;;;11.10;38.80;;;;;;4968124;28;20027;-84
2022/02/24 11:16:26;;;;;;;10.32;2.47;;;11.20;38.60;;;;;;4970162;28;20504;-85
2022/02/24 11:18:54;;;;;;;6.90;2.05;;;11.10;38.30;;;;;;4984661;28;20500;-86
2022/02/24 11:21:21;;;;;;;10.57;3.45;;;11.00;39.10;;;;;;4969076;28;20531;-88
2022/02/24 11:23:49;;;;;;;11.13;3.55;;;11.10;39.40;;;;;;4984732;28;20504;-85
2022/02/24 11:26:20;;;;;;;8.05;2.25;;;11.10;39.60;;;;;;4969501;28;20054;-84
2022/02/24 11:28:49;;;;;;;12.85;3.53;;;11.10;39.40;;;;;;4970316;28;20019;-82
2022/02/24 11:31:44;;;;;;;8.00;2.72;;;11.00;39.40;;;;;;4970003;28;20063;-82
2022/02/24 11:34:10;;;;;;;8.25;2.47;;;10.90;39.20;;;;;;4995914;28;20575;-78
2022/02/24 11:36:46;;;;;;;11.85;3.13;;;10.80;38.90;;;;;;4975287;28;20039;-83
2022/02/24 11:39:18;;;;;;;9.13;3.40;;;10.80;39.10;;;;;;4976158;28;20094;-82
2022/02/24 11:41:55;;;;;;;12.43;2.85;;;10.60;38.70;;;;;;4985041;28;20031;-81
2022/02/24 11:44:38;;;;;;;9.90;2.50;;;10.50;39.60;;;;;;4982330;28;20050;-78
2022/02/24 11:47:10;;;;;;;8.48;3.60;;;10.40;39.50;;;;;;4985794;28;20035;-78
2022/02/24 11:50:02;;;;;;;6.20;2.10;;;10.40;40.20;;;;;;5002571;28;20043;-79
2022/02/24 11:52:29;;;;;;;11.02;3.55;;;10.50;40.90;;;;;;4974603;28;20046;-80
2022/02/24 11:54:57;;;;;;;13.10;4.18;;;10.60;40.30;;;;;;4972799;28;20031;-81
2022/02/24 11:57:37;;;;;;;13.00;3.47;;;10.60;40.30;;;;;;4971569;28;20058;-81
2022/02/24 12:00:16;;;;;;;7.40;3.05;;;10.70;39.80;;;;;;4971441;28;20022;-82
2022/02/24 12:02:49;;;;;;;9.35;3.10;;;10.70;39.90;;;;;;4969391;28;20165;-83
2022/02/24 12:05:24;;;;;;;9.30;2.53;;;10.70;39.40;;;;;;4972505;28;20077;-80
2022/02/24 12:08:19;;;;;;;11.27;2.40;;;10.70;38.00;;;;;;4985609;28;20077;-79
2022/02/24 12:10:47;;;;;;;16.55;7.10;;;10.60;39.10;;;;;;4972983;28;20035;-79
2022/02/24 12:13:23;;;;;;;8.57;3.88;;;10.50;38.80;;;;;;4984247;28;20035;-79
2022/02/24 12:16:12;;;;;;;12.40;3.20;;;10.50;39.60;;;;;;4982348;28;20043;-79
2022/02/24 12:18:40;;;;;;;11.35;4.10;;;10.40;39.30;;;;;;4980636;28;20027;-77
2022/02/24 12:21:30;;;;;;;10.20;2.95;;;10.40;40.10;;;;;;4974706;28;20035;-81
2022/02/24 12:23:59;;;;;;;11.60;3.25;;;10.50;40.50;;;;;;4979071;28;20589;-79
2022/02/24 12:26:46;;;;;;;11.77;2.88;;;10.60;40.40;;;;;;4983423;28;20042;-79
2022/02/24 12:29:30;;;;;;;;;;;10.60;40.00;;;;;;4978695;28;20531;-81
2022/02/24 12:32:00;;;;;;;9.73;2.78;;;10.60;40.20;;;;;;4973845;28;19910;-79
2022/02/24 12:34:27;;;;;;;12.23;2.45;;;10.70;39.90;;;;;;4971042;28;20399;-79
2022/02/24 12:37:06;;;;;;;8.05;2.33;;;10.80;39.70;;;;;;4970690;28;20023;-79
2022/02/24 12:39:39;;;;;;;9.52;3.05;;;10.90;39.50;;;;;;4983391;28;20121;-82
2022/02/24 12:42:10;;;;;;;10.27;3.65;;;11.00;39.40;;;;;;4968026;28;20074;-80
2022/02/24 12:44:36;;;;;;;6.68;2.95;;;11.00;39.20;;;;;;4966161;28;20042;-80
2022/02/24 12:47:02;;;;;;;;;;;10.90;38.60;;;;;;4967384;28;20285;-84
2022/02/24 12:49:44;;;;;;;6.70;2.47;;;10.90;38.70;;;;;;4966857;28;20343;-79
2022/02/24 12:52:09;;;;;;;10.60;3.03;;;11.00;38.60;;;;;;4968395;28;20102;-82
2022/02/24 12:54:35;;;;;;;;;;;11.10;38.80;;;;;;4967550;28;20186;-79
2022/02/24 12:57:02;;;;;;;15.52;4.15;;;11.20;38.30;;;;;;4968413;28;19910;-80
2022/02/24 12:59:28;;;;;;;12.68;3.90;;;11.20;38.60;;;;;;4968689;28;20019;-84
2022/02/24 13:01:54;;;;;;;8.65;3.05;;;11.30;38.10;;;;;;4968813;28;20109;-82
2022/02/24 13:04:21;;;;;;;9.38;2.55;;;11.30;37.50;;;;;;4968029;28;20082;-84
2022/02/24 13:06:48;;;;;;;7.43;3.28;;;11.30;38.00;;;;;;4966629;28;20082;-80
2022/02/24 13:12:09;;;;;;;7.00;1.83;;;11.50;36.90;;;;;;4967451;28;20081;-81
2022/02/24 13:14:39;;;;;;;5.53;1.95;;;11.40;35.90;;;;;;4967254;28;20035;-83